Time;durP1;ratioP1;P1;durP2;ratioP2;P2;SDS_P1;SDS_P2;PMS_P1;PMS_P2;Temp;Humidity;BMP_temperature;BMP_pressure;BME280_temperature;BME280_humidity;BME280_pressure;Samples;Min_cycle;Max_cycle;Signal;HPM_P1;HPM_P2
2021/07/27 00:01:29;;;;;;;90.40;39.65;;;;;;;16.20;94.90;101259.91;6127474;23;20006;-83
2021/07/27 00:03:55;;;;;;;90.82;39.80;;;;;;;16.24;95.05;101268.78;6127547;23;20037;-81
2021/07/27 00:06:20;;;;;;;86.45;37.35;;;;;;;16.32;94.53;101265.22;6127441;23;20029;-84
2021/07/27 00:08:45;;;;;;;72.60;35.67;;;;;;;16.38;94.03;101263.44;6127238;23;20009;-84
2021/07/27 00:11:31;;;;;;;71.65;35.05;;;;;;;16.39;94.03;101260.78;6127086;23;20080;-82
2021/07/27 00:13:56;;;;;;;62.92;31.50;;;;;;;16.43;93.59;101257.25;6127843;23;20005;-81
2021/07/27 00:16:22;;;;;;;69.35;34.05;;;;;;;16.47;93.16;101247.50;6128128;23;20010;-82
2021/07/27 00:18:47;;;;;;;63.70;30.65;;;;;;;16.50;93.35;101259.00;6127450;23;20076;-83
2021/07/27 00:21:13;;;;;;;73.45;32.95;;;;;;;16.48;92.76;101251.91;6127424;23;20010;-82
2021/07/27 00:23:38;;;;;;;59.92;31.40;;;;;;;16.47;92.94;101258.13;6127073;23;20069;-77
2021/07/27 00:26:29;;;;;;;70.80;34.70;;;;;;;16.43;92.85;101245.75;6127550;23;20002;-81
2021/07/27 00:28:55;;;;;;;71.22;34.38;;;;;;;16.42;92.65;101250.16;6127335;23;20014;-86
2021/07/27 00:31:20;;;;;;;65.63;33.30;;;;;;;16.40;92.89;101257.25;6127613;23;20088;-80
2021/07/27 00:34:06;;;;;;;66.07;31.95;;;;;;;16.39;92.78;101249.28;6127496;23;20002;-81
2021/07/27 00:36:32;;;;;;;73.97;34.20;;;;;;;16.36;92.83;101250.19;6126508;23;20017;-82
2021/07/27 00:38:57;;;;;;;71.45;34.20;;;;;;;16.32;92.99;101243.97;6127626;23;20010;-80
2021/07/27 00:41:23;;;;;;;77.10;35.10;;;;;;;16.30;93.05;101250.16;6127182;23;20030;-83
2021/07/27 00:44:08;;;;;;;79.95;36.10;;;;;;;16.28;93.22;101246.63;6126879;23;20641;-83
2021/07/27 00:46:33;;;;;;;82.85;36.42;;;;;;;16.27;93.55;101247.53;6127031;23;20065;-80
2021/07/27 00:49:06;;;;;;;84.97;36.22;;;;;;;16.23;93.31;101240.44;6127460;23;20402;-80
2021/07/27 00:51:31;;;;;;;81.45;37.15;;;;;;;16.18;93.48;101236.03;6101396;23;20014;-80
2021/07/27 00:54:16;;;;;;;83.68;36.97;;;;;;;16.14;93.35;101231.59;6127139;23;20029;-85
2021/07/27 00:56:42;;;;;;;84.97;38.85;;;;;;;16.10;93.63;101237.78;6126613;23;20038;-80
2021/07/27 00:59:08;;;;;;;88.57;38.13;;;;;;;16.07;93.64;101236.91;6126866;23;20049;-81
2021/07/27 01:01:36;;;;;;;98.93;40.50;;;;;;;16.02;93.50;101234.25;6126948;23;20430;-81
2021/07/27 01:04:02;;;;;;;87.72;36.83;;;;;;;15.97;93.64;101225.41;6127504;23;20021;-84
2021/07/27 01:06:27;;;;;;;84.90;37.90;;;;;;;15.92;93.69;101229.81;6126464;23;20342;-84
2021/07/27 01:08:53;;;;;;;99.10;39.72;;;;;;;15.87;93.93;101229.81;6127038;23;20011;-81
2021/07/27 01:11:23;;;;;;;97.32;39.80;;;;;;;15.82;93.99;101226.28;6127063;23;20068;-82
2021/07/27 01:13:48;;;;;;;97.88;41.65;;;;;;;15.80;94.02;101228.03;6126331;23;20005;-82
2021/07/27 01:16:14;;;;;;;105.57;41.00;;;;;;;15.79;94.08;101226.22;6126934;23;20093;-79
2021/07/27 01:18:49;;;;;;;101.13;41.88;;;;;;;15.75;94.45;101222.69;6127283;23;20089;-82
2021/07/27 01:43:21;;;;;;;131.25;47.28;;;;;;;15.62;95.34;101205.84;6137056;23;20045;-84
2021/07/27 01:45:48;;;;;;;122.00;46.03;;;;;;;15.62;95.28;101197.03;6126757;23;20017;-81
2021/07/27 01:48:15;;;;;;;135.05;50.00;;;;;;;15.62;95.38;101204.97;6126844;23;20006;-80
2021/07/27 01:50:41;;;;;;;141.25;51.15;;;;;;;15.60;95.51;101201.44;6126713;23;20006;-81
2021/07/27 01:53:15;;;;;;;151.98;52.05;;;;;;;15.60;95.39;101196.13;6126994;23;20006;-78
2021/07/27 01:55:41;;;;;;;159.05;54.00;;;;;;;15.60;95.54;101197.03;6126866;23;20025;-83
2021/07/27 01:58:06;;;;;;;150.23;52.17;;;;;;;15.58;95.60;101200.56;6126630;23;20401;-78
2021/07/27 02:00:32;;;;;;;153.88;50.42;;;;;;;15.57;95.58;101204.09;6126804;23;20073;-77
2021/07/27 02:02:58;;;;;;;180.02;59.05;;;;;;;15.56;95.61;101200.56;6126800;23;20076;-81
2021/07/27 02:05:23;;;;;;;166.10;54.88;;;;;;;15.55;95.66;101200.56;6126407;23;20382;-85
2021/07/27 02:07:55;;;;;;;166.70;52.83;;;;;;;15.54;95.71;101193.47;6126168;23;20398;-79
2021/07/27 02:10:21;;;;;;;191.75;58.80;;;;;;;15.56;96.01;101200.56;6126752;23;20053;-78
2021/07/27 02:12:52;;;;;;;191.65;57.90;;;;;;;15.56;96.09;101195.25;6128273;23;20010;-78
2021/07/27 02:15:20;;;;;;;176.73;56.17;;;;;;;15.61;96.20;101193.50;6128221;23;20442;-79
2021/07/27 02:17:47;;;;;;;225.07;63.78;;;;;;;15.65;96.56;101191.72;6128308;23;20099;-75
2021/07/27 02:20:13;;;;;;;191.30;59.90;;;;;;;15.68;96.54;101192.63;6128679;23;20005;-83
2021/07/27 02:22:40;;;;;;;208.60;61.55;;;;;;;15.73;96.62;101192.59;6128297;23;20060;-84
2021/07/27 02:25:09;;;;;;;218.38;64.70;;;;;;;15.75;96.45;101190.84;6128806;23;20307;-83
2021/07/27 02:27:34;;;;;;;205.68;60.45;;;;;;;15.79;96.59;101194.38;6128651;23;20006;-83
2021/07/27 02:30:00;;;;;;;214.50;61.05;;;;;;;15.79;96.67;101184.66;6128383;23;20040;-83
2021/07/27 02:32:26;;;;;;;228.25;65.00;;;;;;;15.80;96.75;101186.47;6128516;23;20089;-83
2021/07/27 02:34:51;;;;;;;223.07;63.97;;;;;;;15.82;96.79;101191.78;6128532;23;20057;-81
2021/07/27 02:37:17;;;;;;;227.85;65.88;;;;;;;15.82;96.66;101190.00;6128751;23;20489;-80
2021/07/27 02:39:42;;;;;;;212.70;63.08;;;;;;;15.84;96.90;101190.91;6128647;23;20014;-83
2021/07/27 02:42:07;;;;;;;215.88;61.90;;;;;;;15.85;96.84;101190.00;6128745;23;20006;-85
2021/07/27 02:44:33;;;;;;;217.93;64.43;;;;;;;15.84;96.66;101193.56;6128516;23;20002;-81
2021/07/27 02:47:04;;;;;;;217.55;65.30;;;;;;;15.83;96.59;101197.09;6128431;23;20013;-80
2021/07/27 02:49:30;;;;;;;225.48;63.60;;;;;;;15.80;96.54;101205.06;6128539;23;20006;-78
2021/07/27 02:51:56;;;;;;;218.45;61.70;;;;;;;15.78;96.62;101206.78;6102456;23;20028;-81
2021/07/27 02:54:22;;;;;;;222.52;65.38;;;;;;;15.77;96.72;101197.03;6128408;23;20001;-80
2021/07/27 02:57:07;;;;;;;200.35;61.35;;;;;;;15.73;96.44;101200.56;6128222;23;20374;-83
2021/07/27 02:59:33;;;;;;;200.80;57.55;;;;;;;15.68;96.37;101192.63;6127703;23;20014;-81
2021/07/27 03:01:58;;;;;;;220.77;63.55;;;;;;;15.66;96.34;101188.19;6127657;23;20029;-84
2021/07/27 03:04:26;;;;;;;199.90;58.17;;;;;;;15.64;96.08;101195.25;6128157;23;20021;-82
2021/07/27 03:06:52;;;;;;;238.50;64.00;;;;;;;15.59;96.45;101189.06;6128270;23;20069;-81
2021/07/27 03:09:29;;;;;;;212.48;63.65;;;;;;;15.57;96.70;101185.53;6128414;23;20014;-83
2021/07/27 03:11:55;;;;;;;210.63;60.80;;;;;;;15.56;96.61;101183.75;6102681;23;20006;-85
2021/07/27 03:14:20;;;;;;;174.23;54.78;;;;;;;15.51;96.39;101178.44;6127895;23;20389;-79
2021/07/27 03:16:46;;;;;;;190.68;54.38;;;;;;;15.46;96.63;101175.78;6127542;23;20005;-80
2021/07/27 03:19:31;;;;;;;178.65;58.53;;;;;;;15.45;96.38;101174.03;6127936;23;20006;-83
2021/07/27 03:21:57;;;;;;;187.63;58.83;;;;;;;15.44;96.44;101166.94;6127551;23;20014;-79
2021/07/27 03:24:22;;;;;;;157.32;52.63;;;;;;;15.42;96.53;101168.69;6127932;23;20010;-80
2021/07/27 03:26:47;;;;;;;179.45;56.78;;;;;;;15.43;96.57;101167.81;6127851;23;20002;-80
2021/07/27 03:29:13;;;;;;;149.45;52.67;;;;;;;15.42;96.46;101165.16;6128137;23;20009;-81
2021/07/27 03:31:38;;;;;;;168.05;54.60;;;;;;;15.38;96.35;101164.25;6127942;23;20448;-80
2021/07/27 03:34:04;;;;;;;149.15;53.33;;;;;;;15.37;96.23;101159.88;6127709;23;20013;-79
2021/07/27 03:36:29;;;;;;;161.68;55.95;;;;;;;15.38;96.39;101161.59;6127794;23;19998;-82
2021/07/27 03:38:56;;;;;;;151.18;52.90;;;;;;;15.37;96.47;101162.50;6127971;23;20013;-83
2021/07/27 03:41:21;;;;;;;145.95;53.13;;;;;;;15.38;96.20;101161.59;6127552;23;20338;-83
2021/07/27 03:43:46;;;;;;;140.18;52.85;;;;;;;15.39;96.12;101163.38;6127772;23;20013;-82
2021/07/27 03:46:12;;;;;;;134.88;52.65;;;;;;;15.36;96.10;101163.38;6127652;23;20053;-83
2021/07/27 03:48:37;;;;;;;133.68;50.90;;;;;;;15.36;95.98;101165.16;6127494;23;20014;-82
2021/07/27 03:51:02;;;;;;;119.10;47.28;;;;;;;15.33;95.82;101163.41;6128144;23;20006;-81
2021/07/27 03:53:28;;;;;;;138.40;49.88;;;;;;;15.32;95.77;101170.44;6127960;23;20009;-77
2021/07/27 03:55:53;;;;;;;124.15;48.60;;;;;;;15.34;95.78;101175.75;6127996;23;20077;-78
2021/07/27 03:58:20;;;;;;;147.55;51.35;;;;;;;15.38;96.19;101176.66;6127538;23;20303;-78
2021/07/27 04:00:45;;;;;;;155.45;56.00;;;;;;;15.44;96.27;101176.69;6101855;23;20045;-82
2021/07/27 04:03:13;;;;;;;160.80;57.60;;;;;;;15.48;96.35;101179.31;6127920;23;20005;-82
2021/07/27 04:05:43;;;;;;;156.65;57.47;;;;;;;15.56;96.20;101182.00;6127501;23;19998;-79
2021/07/27 04:08:08;;;;;;;152.73;57.05;;;;;;;15.62;96.56;101175.81;6128229;23;20006;-75
2021/07/27 04:10:33;;;;;;;155.88;56.33;;;;;;;15.65;96.38;101167.84;6127858;23;20440;-81
2021/07/27 04:12:59;;;;;;;150.73;55.75;;;;;;;15.67;96.33;101171.41;6101628;23;20377;-81
2021/07/27 04:15:24;;;;;;;139.93;53.05;;;;;;;15.69;96.30;101174.91;6127589;23;20040;-79
2021/07/27 04:17:49;;;;;;;166.50;55.88;;;;;;;15.72;96.12;101174.94;6127369;23;20445;-80
2021/07/27 04:20:15;;;;;;;139.60;52.85;;;;;;;15.73;96.03;101174.03;6127179;23;20002;-80
2021/07/27 04:22:40;;;;;;;138.77;54.00;;;;;;;15.75;95.74;101166.06;6127582;23;20014;-83
2021/07/27 04:25:06;;;;;;;130.07;52.25;;;;;;;15.77;95.83;101164.31;6127611;23;20053;-83
2021/07/27 04:27:31;;;;;;;123.18;50.42;;;;;;;15.78;95.40;101166.97;6127541;23;20106;-82
2021/07/27 04:29:57;;;;;;;108.88;48.83;;;;;;;15.82;95.30;101162.59;6127598;23;20029;-80
2021/07/27 04:32:22;;;;;;;110.30;49.45;;;;;;;15.83;94.94;101159.06;6127135;23;20053;-79
2021/07/27 04:34:47;;;;;;;105.13;50.03;;;;;;;15.81;94.52;101156.38;6127103;23;20005;-80
2021/07/27 04:37:13;;;;;;;113.18;49.00;;;;;;;15.82;94.66;101160.81;6127006;23;20002;-77
2021/07/27 04:39:40;;;;;;;100.40;50.00;;;;;;;15.82;94.26;101159.94;6127338;23;19998;-78
2021/07/27 04:42:05;;;;;;;88.30;46.03;;;;;;;15.89;94.13;101158.16;6127299;23;20014;-83
2021/07/27 04:44:31;;;;;;;89.70;45.53;;;;;;;15.90;93.08;101159.91;6127205;23;20468;-81
2021/07/27 04:46:56;;;;;;;73.22;42.30;;;;;;;15.97;92.74;101161.69;6127361;23;20008;-81
2021/07/27 04:49:21;;;;;;;73.07;41.65;;;;;;;15.98;92.14;101163.47;6127385;23;20012;-79
2021/07/27 04:51:47;;;;;;;68.53;42.08;;;;;;;16.00;92.16;101167.88;6127359;23;20006;-78
2021/07/27 04:54:16;;;;;;;65.45;40.00;;;;;;;16.07;91.80;101170.53;6127266;23;20009;-82
2021/07/27 04:56:42;;;;;;;60.05;37.42;;;;;;;16.12;91.87;101166.09;6126738;23;20017;-83
2021/07/27 04:59:07;;;;;;;60.72;38.08;;;;;;;16.15;91.50;101158.13;6126844;23;20013;-82
2021/07/27 05:01:33;;;;;;;59.83;34.63;;;;;;;16.19;91.27;101168.72;6127592;23;20005;-79
2021/07/27 05:04:00;;;;;;;59.20;36.92;;;;;;;16.15;90.51;101163.44;6127205;23;20006;-80
2021/07/27 05:06:25;;;;;;;56.30;37.17;;;;;;;16.19;91.44;101163.41;6127439;23;20021;-81
2021/07/27 05:08:51;;;;;;;61.97;36.80;;;;;;;16.21;91.08;101159.88;6127164;23;20017;-79
2021/07/27 05:11:16;;;;;;;55.22;34.90;;;;;;;16.25;90.55;101159.00;6126930;23;20002;-77
2021/07/27 05:13:42;;;;;;;63.10;37.45;;;;;;;16.31;90.43;101161.66;6127176;23;20014;-80
2021/07/27 05:16:07;;;;;;;58.20;36.08;;;;;;;16.33;90.29;101150.13;6126365;23;20010;-79
2021/07/27 05:18:32;;;;;;;52.38;35.25;;;;;;;16.38;90.08;101152.78;6126498;23;20085;-79
2021/07/27 05:20:58;;;;;;;51.58;33.45;;;;;;;16.45;89.27;101143.88;6127053;23;20057;-81
2021/07/27 05:23:28;;;;;;;51.97;33.45;;;;;;;16.49;88.96;101135.06;6126473;23;20445;-82
2021/07/27 05:25:53;;;;;;;47.03;32.05;;;;;;;16.55;89.15;101139.47;6126526;23;20010;-79
2021/07/27 05:28:19;;;;;;;54.25;34.03;;;;;;;16.59;89.13;101140.31;6127139;23;20006;-81
2021/07/27 05:30:44;;;;;;;49.30;33.85;;;;;;;16.60;88.58;101144.75;6127189;23;20013;-80
2021/07/27 05:33:11;;;;;;;51.88;33.83;;;;;;;16.61;88.88;101142.06;6127109;23;20010;-81
2021/07/27 05:35:36;;;;;;;51.05;32.58;;;;;;;16.60;88.72;101150.06;6127295;23;20008;-82
2021/07/27 05:38:03;;;;;;;50.70;32.20;;;;;;;16.66;88.82;101152.69;6100961;23;20066;-82
2021/07/27 05:40:31;;;;;;;51.13;34.40;;;;;;;16.71;88.89;101156.19;6126421;23;20349;-80
2021/07/27 05:42:58;;;;;;;57.00;36.13;;;;;;;16.72;88.41;101147.34;6126708;23;20005;-83
2021/07/27 05:45:25;;;;;;;50.42;34.22;;;;;;;16.75;88.33;101147.31;6127070;23;20081;-83
2021/07/27 05:47:51;;;;;;;53.03;35.90;;;;;;;16.71;86.80;101140.25;6128852;23;20002;-81
2021/07/27 05:50:17;;;;;;;49.75;34.60;;;;;;;16.73;87.60;101153.56;6128764;23;20035;-84
2021/07/27 05:52:42;;;;;;;52.00;35.17;;;;;;;16.71;87.15;101150.88;6128783;23;20014;-79
2021/07/27 05:55:08;;;;;;;47.28;32.72;;;;;;;16.72;86.89;101157.09;6128209;23;20009;-80
2021/07/27 05:57:41;;;;;;;46.97;30.77;;;;;;;16.80;86.85;101156.16;6128589;23;20081;-82
2021/07/27 06:00:06;;;;;;;42.67;28.65;;;;;;;16.77;86.75;101148.22;6128828;23;20069;-85
2021/07/27 06:02:32;;;;;;;40.30;26.15;;;;;;;16.83;86.82;101153.53;6128230;23;20013;-85
2021/07/27 06:04:58;;;;;;;46.10;26.27;;;;;;;16.85;86.04;101149.06;6129518;23;20006;-84
2021/07/27 06:07:26;;;;;;;45.72;26.13;;;;;;;16.89;85.48;101149.03;6129020;23;20010;-80
2021/07/27 06:09:51;;;;;;;35.35;23.27;;;;;;;16.99;84.24;101142.84;6129350;23;20002;-83
2021/07/27 06:12:17;;;;;;;42.70;24.52;;;;;;;17.06;84.44;101139.25;6128961;23;20080;-86
2021/07/27 06:15:02;;;;;;;38.22;23.92;;;;;;;17.10;83.58;101135.66;6128317;23;20016;-84
2021/07/27 06:17:27;;;;;;;36.53;21.70;;;;;;;17.10;83.42;101142.78;6127792;23;20425;-79
2021/07/27 06:19:53;;;;;;;37.33;22.17;;;;;;;17.13;83.59;101138.34;6128260;23;20002;-77
2021/07/27 06:22:18;;;;;;;33.10;21.55;;;;;;;17.23;83.55;101138.25;6128793;23;20071;-80
2021/07/27 06:24:44;;;;;;;28.92;19.40;;;;;;;17.39;82.86;101131.97;6128579;23;20059;-83
2021/07/27 06:27:09;;;;;;;30.80;18.25;;;;;;;17.62;82.24;101142.44;6128939;23;20002;-84
2021/07/27 06:29:35;;;;;;;33.45;19.27;;;;;;;17.81;80.88;101134.28;6128887;23;20020;-83
2021/07/27 06:32:00;;;;;;;28.30;16.67;;;;;;;17.99;80.76;101136.81;6129116;23;20497;-81
2021/07/27 06:34:46;;;;;;;28.70;17.92;;;;;;;18.03;80.33;101138.53;6128490;23;20005;-80
2021/07/27 06:37:11;;;;;;;27.65;17.05;;;;;;;18.09;79.75;101137.59;6129875;23;20006;-86
2021/07/27 06:39:38;;;;;;;30.50;17.90;;;;;;;18.10;80.02;101144.69;6128876;23;20009;-80
2021/07/27 06:42:04;;;;;;;25.60;16.17;;;;;;;18.13;79.60;101144.66;6128183;23;20333;-78
2021/07/27 06:44:29;;;;;;;22.83;16.20;;;;;;;18.28;78.94;101143.63;6128700;23;20147;-82
2021/07/27 06:46:55;;;;;;;23.65;15.57;;;;;;;18.80;78.83;101147.47;6128688;23;20000;-81
2021/07/27 06:49:20;;;;;;;29.48;16.58;;;;;;;19.52;75.58;101140.25;6128140;23;20001;-84
2021/07/27 06:51:47;;;;;;;20.35;13.68;;;;;;;20.18;73.42;101146.28;6129008;23;20013;-78
2021/07/27 06:54:12;;;;;;;21.77;14.55;;;;;;;20.51;72.48;101141.19;6128483;23;20098;-79
2021/07/27 06:56:37;;;;;;;23.98;14.63;;;;;;;20.66;71.53;101147.13;6128517;23;20029;-79
2021/07/27 06:59:03;;;;;;;22.38;14.18;;;;;;;20.65;72.62;101148.06;6128947;23;20006;-82
2021/07/27 07:01:29;;;;;;;22.13;14.35;;;;;;;20.09;72.50;101148.22;6128293;23;20010;-80
2021/07/27 07:03:55;;;;;;;23.50;14.50;;;;;;;19.82;73.41;101154.03;6128555;23;20052;-85
2021/07/27 07:06:22;;;;;;;23.20;15.55;;;;;;;19.84;73.73;101160.22;6128605;23;20006;-83
2021/07/27 07:08:49;;;;;;;19.13;13.32;;;;;;;19.64;74.17;101156.97;6102171;23;20100;-77
2021/07/27 07:11:14;;;;;;;23.73;16.27;;;;;;;19.12;76.55;101156.84;6128236;23;20393;-82
2021/07/27 07:13:40;;;;;;;24.85;16.42;;;;;;;19.22;77.93;101165.59;6128710;23;20069;-80
2021/07/27 07:16:10;;;;;;;22.02;14.70;;;;;;;19.32;77.12;101161.91;6128635;23;20006;-83
2021/07/27 07:18:55;;;;;;;28.25;16.88;;;;;;;19.43;77.45;101164.41;6128246;23;20043;-81
2021/07/27 07:21:21;;;;;;;24.80;14.77;;;;;;;19.58;76.44;101159.75;6128413;23;20409;-82
2021/07/27 07:23:46;;;;;;;21.52;14.13;;;;;;;19.59;76.29;101164.16;6128611;23;20018;-83
2021/07/27 07:26:12;;;;;;;19.60;14.38;;;;;;;19.59;77.09;101170.41;6128607;23;20005;-85
2021/07/27 07:28:37;;;;;;;22.48;15.20;;;;;;;19.57;78.92;101176.66;6102716;23;20092;-77
2021/07/27 07:31:03;;;;;;;24.33;14.70;;;;;;;19.61;76.81;101168.56;6128534;23;20005;-84
2021/07/27 07:33:28;;;;;;;23.92;13.93;;;;;;;19.59;76.52;101174.84;6102034;23;20438;-78
2021/07/27 07:35:54;;;;;;;25.55;13.68;;;;;;;19.47;77.55;101167.94;6129030;23;20006;-83
2021/07/27 07:38:19;;;;;;;22.50;14.70;;;;;;;19.39;78.31;101173.38;6128681;23;20334;-83
2021/07/27 07:40:45;;;;;;;20.15;15.02;;;;;;;19.45;78.66;101175.97;6128218;23;20374;-78
2021/07/27 07:43:10;;;;;;;22.38;14.55;;;;;;;19.64;77.15;101167.66;6128909;23;20002;-83
2021/07/27 07:45:56;;;;;;;23.52;14.65;;;;;;;19.59;77.96;101169.50;6128656;23;20013;-81
2021/07/27 07:48:22;;;;;;;25.05;14.68;;;;;;;19.50;77.66;101173.22;6128118;23;20014;-85
2021/07/27 07:50:47;;;;;;;27.13;16.50;;;;;;;19.30;78.55;101179.75;6128101;23;20017;-84
2021/07/27 07:53:13;;;;;;;28.48;16.95;;;;;;;19.22;79.28;101176.28;6128138;23;20021;-77
2021/07/27 07:55:38;;;;;;;21.83;16.90;;;;;;;19.13;79.25;101161.28;6127614;23;20009;-81
2021/07/27 07:58:04;;;;;;;23.77;18.08;;;;;;;19.07;80.72;101177.34;6128086;23;20021;-78
2021/07/27 08:00:29;;;;;;;28.33;18.02;;;;;;;19.18;80.35;101170.13;6128389;23;20077;-78
2021/07/27 08:03:00;;;;;;;28.25;16.88;;;;;;;19.33;79.27;101168.13;6128252;23;20417;-80
2021/07/27 08:05:26;;;;;;;25.13;17.40;;;;;;;19.41;79.18;101171.56;6129078;23;20010;-84
2021/07/27 08:07:51;;;;;;;27.30;17.85;;;;;;;19.54;78.61;101162.44;6127863;23;20092;-83
2021/07/27 08:10:17;;;;;;;32.17;19.35;;;;;;;19.60;77.36;101161.50;6128689;23;20006;-80
2021/07/27 08:12:44;;;;;;;24.92;17.92;;;;;;;19.67;76.60;101159.63;6129459;23;20110;-81
2021/07/27 08:15:10;;;;;;;24.45;16.35;;;;;;;19.65;77.46;101170.28;6128348;23;20013;-79
2021/07/27 08:17:36;;;;;;;34.10;21.13;;;;;;;19.53;77.49;101168.72;6128823;23;20006;-82
2021/07/27 08:20:02;;;;;;;29.77;21.20;;;;;;;19.42;78.49;101175.97;6102622;23;20512;-81
2021/07/27 08:22:27;;;;;;;31.08;21.20;;;;;;;19.41;78.12;101171.56;6103323;23;20017;-82
2021/07/27 08:24:53;;;;;;;29.73;21.60;;;;;;;19.47;77.99;101168.78;6128094;23;20022;-79
2021/07/27 08:27:18;;;;;;;34.42;21.85;;;;;;;19.58;79.34;101170.44;6128425;23;20029;-82
2021/07/27 08:30:04;;;;;;;33.80;21.55;;;;;;;19.68;78.89;101169.38;6128387;23;20025;-80
2021/07/27 08:32:29;;;;;;;33.20;21.83;;;;;;;19.87;77.89;101170.88;6128049;23;20016;-81
2021/07/27 08:34:55;;;;;;;30.55;20.60;;;;;;;20.06;76.95;101167.88;6128121;23;20393;-84
2021/07/27 08:37:20;;;;;;;27.33;20.30;;;;;;;20.13;76.76;101166.88;6128245;23;20010;-83
2021/07/27 08:39:46;;;;;;;27.75;19.73;;;;;;;20.42;75.94;101172.59;6128038;23;20086;-82
2021/07/27 08:42:11;;;;;;;29.55;20.05;;;;;;;20.36;75.94;101173.56;6102455;23;20448;-82
2021/07/27 08:45:16;;;;;;;28.98;18.77;;;;;;;20.33;75.88;101170.94;6128350;23;20073;-82
2021/07/27 08:48:05;;;;;;;28.45;19.58;;;;;;;20.27;76.23;101179.09;6101006;23;20037;-79
2021/07/27 08:50:31;;;;;;;26.52;18.90;;;;;;;20.20;76.20;101179.19;6127257;23;20373;-81
2021/07/27 08:52:56;;;;;;;32.22;19.30;;;;;;;20.09;76.66;101178.53;6127579;23;20025;-84
2021/07/27 08:55:22;;;;;;;30.85;19.92;;;;;;;19.89;76.79;101184.19;6127762;23;20025;-80
2021/07/27 08:57:58;;;;;;;32.47;19.55;;;;;;;19.82;77.86;101183.41;6127650;23;20012;-81
2021/07/27 09:00:44;;;;;;;29.30;19.92;;;;;;;19.79;78.51;101183.44;6127814;23;20137;-82
2021/07/27 09:03:11;;;;;;;29.92;18.58;;;;;;;19.67;78.16;101183.63;6127258;23;20036;-79
2021/07/27 09:05:38;;;;;;;33.13;19.20;;;;;;;19.77;78.39;101190.56;6128038;23;20016;-79
2021/07/27 09:08:05;;;;;;;29.35;19.58;;;;;;;19.82;78.35;101193.22;6127189;23;20065;-78
2021/07/27 09:10:33;;;;;;;27.63;18.13;;;;;;;19.96;78.01;101184.97;6127646;23;20017;-83
2021/07/27 09:13:22;;;;;;;35.90;19.55;;;;;;;20.04;76.20;101185.72;6127793;23;20487;-82
2021/07/27 09:15:48;;;;;;;31.70;19.25;;;;;;;20.04;77.53;101191.06;6126382;23;20009;-79
2021/07/27 09:18:36;;;;;;;34.13;19.67;;;;;;;19.88;77.24;101188.63;6127238;23;20021;-82
2021/07/27 09:21:02;;;;;;;33.17;19.83;;;;;;;19.73;78.22;101194.22;6127357;23;20006;-78
2021/07/27 09:23:28;;;;;;;30.90;20.48;;;;;;;19.60;78.60;101197.97;6127069;23;20537;-80
2021/07/27 09:26:14;;;;;;;40.90;24.05;;;;;;;19.27;80.53;101198.44;6127975;23;20021;-81
2021/07/27 09:28:39;;;;;;;42.90;26.65;;;;;;;19.19;81.97;101206.56;6126963;23;20010;-81
2021/07/27 09:31:04;;;;;;;36.83;24.75;;;;;;;19.01;82.63;101213.00;6127861;23;20084;-81
2021/07/27 09:33:34;;;;;;;31.90;24.17;;;;;;;18.81;83.80;101213.19;6127943;23;20002;-79
2021/07/27 09:36:25;;;;;;;39.63;22.35;;;;;;;18.59;86.00;101220.56;6127628;23;20477;-83
2021/07/27 09:39:01;;;;;;;31.95;21.75;;;;;;;18.37;87.58;101235.91;6129848;23;20010;-82
2021/07/27 09:41:28;;;;;;;36.85;23.13;;;;;;;18.14;89.00;101230.78;6128919;23;20340;-81
2021/07/27 09:43:54;;;;;;;36.00;24.52;;;;;;;17.97;90.42;101241.56;6102353;23;20042;-81
2021/07/27 09:46:20;;;;;;;38.22;23.50;;;;;;;17.84;90.80;101243.41;6127659;23;20006;-83
2021/07/27 09:48:47;;;;;;;37.88;25.38;;;;;;;17.90;92.49;101240.69;6127812;23;20005;-83
2021/07/27 09:51:12;;;;;;;22.73;17.55;;;;;;;18.03;91.19;101233.53;6127413;23;20418;-79
2021/07/27 09:53:39;;;;;;;24.35;15.93;;;;;;;18.28;89.97;101233.31;6127920;23;20009;-80
2021/07/27 09:56:07;;;;;;;23.15;13.32;;;;;;;18.40;89.13;101229.66;6101138;23;20009;-77
2021/07/27 09:58:33;;;;;;;22.70;12.90;;;;;;;18.64;88.65;101229.41;6127108;23;20009;-80
2021/07/27 10:01:02;;;;;;;21.13;12.02;;;;;;;18.92;87.87;101230.91;6127300;23;20032;-80
2021/07/27 10:03:33;;;;;;;16.30;8.95;;;;;;;19.02;86.26;101228.13;6127263;23;20068;-77
2021/07/27 10:06:01;;;;;;;19.80;10.65;;;;;;;19.20;86.19;101239.44;6127508;23;20002;-76
2021/07/27 10:08:34;;;;;;;24.75;10.25;;;;;;;19.25;84.85;101232.28;6127055;23;20034;-79
2021/07/27 10:11:11;;;;;;;17.65;8.52;;;;;;;19.25;84.90;101223.38;6127665;23;20010;-79
2021/07/27 10:14:03;;;;;;;15.18;6.57;;;;;;;19.18;84.01;101218.13;6127638;23;20006;-82
2021/07/27 10:16:31;;;;;;;16.35;6.70;;;;;;;19.25;83.16;101218.03;6101361;23;20010;-77
2021/07/27 10:18:56;;;;;;;17.90;6.03;;;;;;;19.34;83.76;101212.56;6101768;23;20010;-81
2021/07/27 10:21:25;;;;;;;19.88;6.13;;;;;;;19.41;82.58;101219.63;6126902;23;20330;-82
2021/07/27 10:23:55;;;;;;;16.23;6.30;;;;;;;19.48;82.00;101221.28;6126258;23;20438;-80
2021/07/27 10:26:32;;;;;;;14.93;5.40;;;;;;;19.32;82.62;101233.94;6127444;23;20029;-81
2021/07/27 10:29:18;;;;;;;20.00;5.88;;;;;;;19.10;81.83;101236.03;6127518;23;20013;-80
2021/07/27 10:31:45;;;;;;;18.90;6.97;;;;;;;18.86;84.70;101235.38;6127391;23;20069;-79
2021/07/27 10:34:12;;;;;;;26.52;5.95;;;;;;;18.68;83.11;101223.13;6130718;23;20037;-77
2021/07/27 10:36:53;;;;;;;14.98;6.03;;;;;;;18.60;85.02;101227.69;6129469;23;20077;-79
2021/07/27 10:39:20;;;;;;;20.85;5.75;;;;;;;18.35;84.09;101221.69;6129388;23;20097;-82
2021/07/27 10:41:47;;;;;;;16.70;5.60;;;;;;;18.25;85.47;101218.25;6128406;23;20010;-80
2021/07/27 10:44:20;;;;;;;19.13;5.20;;;;;;;18.23;86.28;101219.16;6129195;23;20021;-80
2021/07/27 10:46:48;;;;;;;16.35;5.32;;;;;;;18.25;86.95;101223.56;6129088;23;20065;-82
2021/07/27 10:49:16;;;;;;;30.05;6.13;;;;;;;18.26;86.75;101213.78;6130920;23;20085;-78
2021/07/27 10:51:55;;;;;;;17.83;4.55;;;;;;;18.20;86.26;101210.31;6128342;23;20072;-80
2021/07/27 10:54:42;;;;;;;18.33;5.68;;;;;;;18.17;87.13;101215.66;6102822;23;20014;-80
2021/07/27 10:57:10;;;;;;;20.38;6.10;;;;;;;18.23;86.98;101208.50;6126333;23;20504;-80
2021/07/27 10:59:36;;;;;;;18.05;5.97;;;;;;;18.31;86.70;101195.97;6128199;23;20445;-77
2021/07/27 11:02:10;;;;;;;17.77;5.43;;;;;;;18.30;86.49;101204.88;6128116;23;20445;-81
2021/07/27 11:04:36;;;;;;;12.25;4.30;;;;;;;18.48;86.88;101207.34;6127864;23;20085;-80
2021/07/27 11:07:08;;;;;;;14.98;4.60;;;;;;;18.67;85.13;101199.19;6102471;23;20421;-77
2021/07/27 11:09:33;;;;;;;13.23;5.10;;;;;;;18.92;84.80;101193.56;6128398;23;20012;-76
2021/07/27 11:11:58;;;;;;;12.18;4.30;;;;;;;19.20;85.08;101202.09;6129192;23;20025;-80
2021/07/27 11:14:24;;;;;;;11.32;4.05;;;;;;;19.55;84.34;101204.25;6128178;23;20010;-82
2021/07/27 11:17:09;;;;;;;12.95;3.80;;;;;;;20.03;80.58;101191.97;6128137;23;20010;-79
2021/07/27 11:19:35;;;;;;;12.70;3.83;;;;;;;20.39;80.34;101189.56;6127785;23;20337;-80
2021/07/27 11:22:00;;;;;;;12.82;4.00;;;;;;;20.79;78.36;101178.09;6127622;23;20073;-79
2021/07/27 11:24:28;;;;;;;18.33;4.35;;;;;;;20.85;77.90;101183.31;6101930;23;20033;-80
2021/07/27 11:26:54;;;;;;;15.18;3.72;;;;;;;20.78;75.62;101180.81;6127985;23;20017;-79
2021/07/27 11:29:21;;;;;;;14.13;4.07;;;;;;;20.83;76.09;101179.78;6128047;23;20006;-78
2021/07/27 11:31:51;;;;;;;12.90;3.75;;;;;;;20.45;77.16;101181.41;6127988;23;20373;-81
2021/07/27 11:34:30;;;;;;;15.48;3.72;;;;;;;20.06;79.43;101194.56;6128703;23;20001;-80
2021/07/27 11:36:57;;;;;;;11.57;4.43;;;;;;;20.11;78.14;101195.38;6127696;23;20413;-82